Time;durP1;ratioP1;P1;durP2;ratioP2;P2;SDS_P1;SDS_P2;PMS_P1;PMS_P2;Temp;Humidity;BMP_temperature;BMP_pressure;BME280_temperature;BME280_humidity;BME280_pressure;Samples;Min_cycle;Max_cycle;Signal;HPM_P1;HPM_P2
2024/04/06 00:02:12;;;;;;;1.00;0.20;;;17.70;91.60;;;;;;5087628;28;20040;-62
2024/04/06 00:04:40;;;;;;;0.93;0.30;;;17.70;91.60;;;;;;5085125;28;20042;-61
2024/04/06 00:07:06;;;;;;;1.33;0.22;;;17.70;91.60;;;;;;5088629;28;20125;-61
2024/04/06 00:09:32;;;;;;;3.25;0.30;;;17.80;91.50;;;;;;5095004;28;20035;-60
2024/04/06 00:11:58;;;;;;;3.00;0.40;;;17.70;91.50;;;;;;5088542;28;20575;-61
2024/04/06 00:14:23;;;;;;;8.73;0.80;;;17.70;91.70;;;;;;5089991;28;20044;-61
2024/04/06 00:16:55;;;;;;;4.80;0.38;;;17.70;91.60;;;;;;5106029;28;20122;-60
2024/04/06 00:19:20;;;;;;;1.80;0.35;;;17.70;91.70;;;;;;5117375;28;20376;-61
2024/04/06 00:21:46;;;;;;;2.92;0.47;;;17.70;91.70;;;;;;5116436;28;20044;-61
2024/04/06 00:24:12;;;;;;;1.70;0.30;;;17.70;91.70;;;;;;5116867;28;20431;-61
2024/04/06 00:26:37;;;;;;;4.85;0.50;;;17.70;91.80;;;;;;5118030;28;20037;-60
2024/04/06 00:29:03;;;;;;;2.47;0.40;;;17.70;91.80;;;;;;5121132;28;20031;-61
2024/04/06 00:31:28;;;;;;;3.53;0.50;;;17.70;91.90;;;;;;5101146;28;20455;-61
2024/04/06 00:33:54;;;;;;;2.00;0.40;;;17.70;91.90;;;;;;5096380;28;20032;-61
2024/04/06 00:36:19;;;;;;;2.72;0.20;;;17.60;91.90;;;;;;5106840;28;20590;-61
2024/04/06 00:38:45;;;;;;;2.13;0.32;;;17.60;92.00;;;;;;5119041;28;20039;-60
2024/04/06 00:41:10;;;;;;;2.60;0.30;;;17.50;92.00;;;;;;5122450;28;20084;-61
2024/04/06 00:43:37;;;;;;;3.70;0.28;;;17.50;92.00;;;;;;5120149;28;20038;-60
2024/04/06 00:46:09;;;;;;;4.38;0.40;;;17.60;92.00;;;;;;5118977;28;20397;-62
2024/04/06 00:48:34;;;;;;;1.55;0.22;;;17.60;92.00;;;;;;5108830;28;20478;-60
2024/04/06 00:51:05;;;;;;;2.80;0.30;;;17.60;92.00;;;;;;5115766;28;20058;-61
2024/04/06 00:53:32;;;;;;;1.30;0.30;;;17.50;92.00;;;;;;5108411;28;20031;-61
2024/04/06 00:55:59;;;;;;;2.45;0.30;;;17.50;92.00;;;;;;5112692;28;20057;-61
2024/04/06 00:58:25;;;;;;;1.33;0.30;;;17.50;92.00;;;;;;5092266;28;20424;-61
2024/04/06 01:00:57;;;;;;;1.13;0.20;;;17.50;92.00;;;;;;5097167;28;20032;-61
2024/04/06 01:03:23;;;;;;;6.60;0.50;;;17.50;92.00;;;;;;5094774;28;20423;-60
2024/04/06 01:05:49;;;;;;;1.85;0.22;;;17.50;92.00;;;;;;5077479;28;20028;-61
2024/04/06 01:08:14;;;;;;;1.75;0.30;;;17.50;92.10;;;;;;5090186;28;20040;-60
2024/04/06 01:10:40;;;;;;;4.82;0.40;;;17.50;92.20;;;;;;5090475;28;20063;-61
2024/04/06 01:13:06;;;;;;;1.20;0.30;;;17.50;92.20;;;;;;5082546;28;20062;-61
2024/04/06 01:15:34;;;;;;;1.10;0.20;;;17.50;92.20;;;;;;5089875;28;20040;-61
2024/04/06 01:18:06;;;;;;;4.05;0.45;;;17.50;92.30;;;;;;5083623;28;20452;-61
2024/04/06 01:20:35;;;;;;;1.98;0.40;;;17.40;92.40;;;;;;5113537;28;20031;-60
2024/04/06 01:23:02;;;;;;;1.95;0.40;;;17.40;92.60;;;;;;5119643;28;20405;-62
2024/04/06 01:25:27;;;;;;;3.47;0.38;;;17.40;92.50;;;;;;5108775;27;20036;-60
2024/04/06 01:27:53;;;;;;;1.40;0.30;;;17.40;92.60;;;;;;5116339;28;20386;-61
2024/04/06 01:30:19;;;;;;;4.00;0.50;;;17.40;92.60;;;;;;5113493;28;20484;-61
2024/04/06 01:32:51;;;;;;;1.55;0.30;;;17.40;92.60;;;;;;5114789;28;20081;-61
2024/04/06 01:35:18;;;;;;;3.22;0.40;;;17.40;92.60;;;;;;5121589;27;20110;-61
2024/04/06 01:37:46;;;;;;;0.88;0.20;;;17.30;92.80;;;;;;5117383;28;20050;-62
2024/04/06 01:40:12;;;;;;;1.58;0.22;;;17.30;92.70;;;;;;5117142;28;21788;-61
2024/04/06 01:42:38;;;;;;;2.75;0.40;;;17.30;92.70;;;;;;5116375;28;20032;-60
2024/04/06 01:45:05;;;;;;;1.05;0.22;;;17.30;92.80;;;;;;5107257;28;20047;-61
2024/04/06 01:47:30;;;;;;;3.10;0.50;;;17.30;92.80;;;;;;5115292;28;20046;-62
2024/04/06 01:50:00;;;;;;;1.98;0.30;;;17.20;92.90;;;;;;5122517;28;20047;-61
2024/04/06 01:52:25;;;;;;;1.75;0.22;;;17.10;92.90;;;;;;5119439;28;20529;-61
2024/04/06 01:54:51;;;;;;;1.30;0.20;;;17.10;92.90;;;;;;5115085;28;20028;-61
2024/04/06 01:57:17;;;;;;;2.10;0.30;;;17.00;92.90;;;;;;5119470;27;20668;-61
2024/04/06 01:59:45;;;;;;;1.75;0.30;;;17.00;93.00;;;;;;5118321;28;20523;-60
2024/04/06 02:02:11;;;;;;;2.03;0.30;;;17.00;93.00;;;;;;5119458;28;20032;-61
2024/04/06 02:04:37;;;;;;;0.55;0.20;;;17.00;93.00;;;;;;5089521;28;20385;-61
2024/04/06 02:07:04;;;;;;;1.38;0.20;;;17.00;93.00;;;;;;5111221;28;20493;-62
2024/04/06 02:09:30;;;;;;;2.95;0.40;;;16.90;93.00;;;;;;5114068;28;20032;-62
2024/04/06 02:11:55;;;;;;;2.45;0.20;;;16.90;93.00;;;;;;5118942;28;20038;-61
2024/04/06 02:14:21;;;;;;;1.42;0.20;;;16.80;93.00;;;;;;5119212;28;20027;-61
2024/04/06 02:16:53;;;;;;;3.00;0.30;;;16.80;93.00;;;;;;5113531;28;20035;-61
2024/04/06 02:19:25;;;;;;;1.33;0.28;;;16.70;93.10;;;;;;5118661;28;20048;-61
2024/04/06 02:21:51;;;;;;;0.40;0.10;;;16.60;93.20;;;;;;5125432;27;20030;-61
2024/04/06 02:24:17;;;;;;;1.02;0.15;;;16.60;93.30;;;;;;5118629;28;20034;-61
2024/04/06 02:26:43;;;;;;;2.08;0.32;;;16.60;93.30;;;;;;5117248;28;20478;-61
2024/04/06 02:29:08;;;;;;;1.02;0.10;;;16.60;93.30;;;;;;5117297;28;20054;-61
2024/04/06 02:31:36;;;;;;;2.95;0.40;;;16.60;93.30;;;;;;5117755;28;20028;-62
2024/04/06 02:34:02;;;;;;;1.90;0.25;;;16.50;93.40;;;;;;5119991;27;20486;-61
2024/04/06 02:36:28;;;;;;;2.80;0.40;;;16.50;93.50;;;;;;5103831;28;20077;-61
2024/04/06 02:38:53;;;;;;;2.67;0.30;;;16.40;93.50;;;;;;5091154;28;20052;-61
2024/04/06 02:41:19;;;;;;;2.72;0.30;;;16.30;93.90;;;;;;5037708;28;20139;-61
2024/04/06 02:43:44;;;;;;;0.28;0.10;;;16.30;93.90;;;;;;5051605;28;20037;-61
2024/04/06 02:46:10;;;;;;;1.17;0.20;;;16.30;93.90;;;;;;5047768;28;20028;-62
2024/04/06 02:48:36;;;;;;;2.00;0.40;;;16.30;93.80;;;;;;5054869;28;20040;-61
2024/04/06 02:51:02;;;;;;;1.45;0.20;;;16.30;94.00;;;;;;5075775;28;20383;-62
2024/04/06 02:53:28;;;;;;;1.20;0.30;;;16.20;94.10;;;;;;5092536;28;20079;-62
2024/04/06 02:55:55;;;;;;;2.17;0.30;;;16.20;94.20;;;;;;5093079;28;20157;-62
2024/04/06 02:58:22;;;;;;;2.08;0.25;;;16.30;94.20;;;;;;5087739;28;20040;-61
2024/04/06 03:00:47;;;;;;;4.97;0.32;;;16.30;94.20;;;;;;5088632;28;20026;-62
2024/04/06 03:03:15;;;;;;;0.65;0.15;;;16.30;94.10;;;;;;5075203;28;20039;-62
2024/04/06 03:05:40;;;;;;;2.65;0.20;;;16.30;94.10;;;;;;5109848;28;20089;-63
2024/04/06 03:08:06;;;;;;;0.73;0.13;;;16.30;94.20;;;;;;5098903;28;20047;-61
2024/04/06 03:10:32;;;;;;;3.10;0.30;;;16.20;94.20;;;;;;5111589;28;20081;-61
2024/04/06 03:12:58;;;;;;;2.08;0.40;;;16.30;94.20;;;;;;5115248;28;20061;-62
2024/04/06 03:15:25;;;;;;;2.47;0.40;;;16.20;94.10;;;;;;5107446;28;20028;-61
2024/04/06 03:17:52;;;;;;;2.03;0.30;;;16.20;94.10;;;;;;5113410;27;20044;-61
2024/04/06 03:20:24;;;;;;;10.90;0.80;;;16.20;94.20;;;;;;5106964;28;20031;-61
2024/04/06 03:23:03;;;;;;;1.73;0.17;;;16.20;94.10;;;;;;5091182;28;20036;-61
2024/04/06 03:25:30;;;;;;;2.03;0.30;;;16.20;94.20;;;;;;5077400;28;20161;-61
2024/04/06 03:27:56;;;;;;;4.40;0.38;;;16.20;94.00;;;;;;5092563;28;20031;-61
2024/04/06 03:30:23;;;;;;;1.20;0.30;;;16.20;94.10;;;;;;5087290;28;20036;-62
2024/04/06 03:32:49;;;;;;;1.73;0.30;;;16.10;94.00;;;;;;5074597;28;20039;-61
2024/04/06 03:35:21;;;;;;;0.98;0.20;;;16.10;94.00;;;;;;5082317;28;20040;-61
2024/04/06 03:37:53;;;;;;;1.60;0.30;;;16.10;94.00;;;;;;5087079;28;20498;-61
2024/04/06 03:40:19;;;;;;;2.15;0.20;;;16.00;94.30;;;;;;5092052;28;20048;-61
2024/04/06 03:42:58;;;;;;;2.45;0.20;;;16.00;94.10;;;;;;5104747;28;20545;-62
2024/04/06 03:45:25;;;;;;;2.53;0.32;;;15.90;94.10;;;;;;5106848;28;20046;-61
2024/04/06 03:47:50;;;;;;;0.77;0.20;;;15.90;94.30;;;;;;5110745;28;20114;-61
2024/04/06 03:50:16;;;;;;;1.88;0.35;;;15.80;94.20;;;;;;5104723;28;20131;-61
2024/04/06 03:52:43;;;;;;;2.33;0.32;;;15.80;94.30;;;;;;5109796;28;20043;-61
2024/04/06 03:55:08;;;;;;;1.95;0.38;;;15.70;94.30;;;;;;5110251;28;20046;-61
2024/04/06 03:57:34;;;;;;;0.75;0.20;;;15.70;94.40;;;;;;5112777;28;20490;-61
2024/04/06 04:00:00;;;;;;;1.17;0.20;;;15.70;94.40;;;;;;5111314;28;20047;-62
2024/04/06 04:02:25;;;;;;;1.90;0.30;;;15.70;94.40;;;;;;5090695;28;20116;-61
2024/04/06 04:04:51;;;;;;;2.55;0.30;;;15.70;94.40;;;;;;5089641;28;20486;-62
2024/04/06 04:07:17;;;;;;;1.75;0.38;;;15.70;94.50;;;;;;5084871;28;20032;-61
2024/04/06 04:09:43;;;;;;;2.80;0.40;;;15.60;94.60;;;;;;5082664;28;20077;-61
2024/04/06 04:12:08;;;;;;;3.70;0.50;;;15.70;94.70;;;;;;5112528;28;20028;-61
2024/04/06 04:14:40;;;;;;;3.15;0.40;;;15.60;94.70;;;;;;5096168;28;20040;-60
2024/04/06 04:17:06;;;;;;;1.73;0.40;;;15.60;94.90;;;;;;5041129;28;20045;-60
2024/04/06 04:19:31;;;;;;;1.27;0.30;;;15.60;94.90;;;;;;5067083;28;20497;-61
2024/04/06 04:21:57;;;;;;;2.53;0.25;;;15.70;94.90;;;;;;5103366;28;20032;-61
2024/04/06 04:24:22;;;;;;;1.42;0.20;;;15.70;94.90;;;;;;5106781;28;20039;-62
2024/04/06 04:26:48;;;;;;;2.03;0.28;;;15.70;94.90;;;;;;5103185;28;20483;-61
2024/04/06 04:29:13;;;;;;;2.17;0.40;;;15.70;94.80;;;;;;5108932;28;20713;-61
2024/04/06 04:31:39;;;;;;;2.80;0.50;;;15.60;94.90;;;;;;5108754;28;20115;-61
2024/04/06 04:34:04;;;;;;;0.93;0.20;;;15.60;94.90;;;;;;5109873;28;20543;-61
2024/04/06 04:36:30;;;;;;;0.98;0.30;;;15.60;94.90;;;;;;5109932;28;20546;-61
2024/04/06 04:38:56;;;;;;;1.95;0.30;;;15.60;94.90;;;;;;5107909;28;20061;-61
2024/04/06 04:41:21;;;;;;;1.65;0.30;;;15.50;94.90;;;;;;5108531;28;20031;-61
2024/04/06 04:43:47;;;;;;;3.65;0.30;;;15.50;95.10;;;;;;5113005;28;20031;-61
2024/04/06 04:46:12;;;;;;;1.02;0.25;;;15.40;95.10;;;;;;5108967;28;20112;-61
2024/04/06 04:48:59;;;;;;;3.80;0.50;;;15.40;95.10;;;;;;5105628;28;20024;-62
2024/04/06 04:51:26;;;;;;;1.58;0.30;;;15.40;95.10;;;;;;5108122;28;20035;-61
2024/04/06 04:53:54;;;;;;;1.95;0.30;;;15.40;95.10;;;;;;5109346;28;20128;-62
2024/04/06 04:56:20;;;;;;;2.22;0.40;;;15.40;95.10;;;;;;5108279;28;20046;-61
2024/04/06 04:58:47;;;;;;;1.70;0.30;;;15.40;95.00;;;;;;5108792;28;20048;-61
2024/04/06 05:01:13;;;;;;;1.65;0.30;;;15.30;95.20;;;;;;5109753;28;20370;-61
2024/04/06 05:03:39;;;;;;;1.48;0.30;;;15.30;95.00;;;;;;5108620;28;20529;-61
2024/04/06 05:06:04;;;;;;;1.85;0.35;;;15.30;95.00;;;;;;5090388;28;20036;-61
2024/04/06 05:08:30;;;;;;;1.58;0.30;;;15.30;95.00;;;;;;5106335;28;20027;-61
2024/04/06 05:10:56;;;;;;;1.23;0.32;;;15.30;95.00;;;;;;5084676;28;20032;-61
2024/04/06 05:13:22;;;;;;;2.72;0.40;;;15.20;95.00;;;;;;5102954;28;20054;-61
2024/04/06 05:15:55;;;;;;;2.72;0.40;;;15.20;95.10;;;;;;5108421;28;20424;-62
2024/04/06 05:18:22;;;;;;;5.28;0.50;;;15.20;95.10;;;;;;5108991;28;20047;-62
2024/04/06 05:20:57;;;;;;;2.15;0.40;;;15.20;95.20;;;;;;5083594;28;20123;-61
2024/04/06 05:23:23;;;;;;;9.45;0.77;;;15.20;95.30;;;;;;5107509;28;20023;-61
2024/04/06 05:25:55;;;;;;;4.35;0.47;;;15.20;95.30;;;;;;5104664;28;20047;-61
2024/04/06 05:28:23;;;;;;;2.22;0.32;;;15.30;95.30;;;;;;5099398;28;20122;-61
2024/04/06 05:30:50;;;;;;;1.65;0.22;;;15.30;95.30;;;;;;5102431;28;20395;-62
2024/04/06 05:33:20;;;;;;;2.03;0.30;;;15.30;95.20;;;;;;5108761;28;20026;-61
2024/04/06 05:35:47;;;;;;;1.80;0.30;;;15.30;95.10;;;;;;5109242;28;20043;-61
2024/04/06 05:38:14;;;;;;;;;;;15.30;95.10;;;;;;5105074;28;20188;-61
2024/04/06 05:40:41;;;;;;;2.50;0.30;;;15.20;95.10;;;;;;5109433;28;19947;-61
2024/04/06 05:43:10;;;;;;;2.28;0.38;;;15.20;95.30;;;;;;5109723;28;20043;-61
2024/04/06 05:45:40;;;;;;;4.82;0.38;;;15.20;95.20;;;;;;5103390;28;20588;-62
2024/04/06 05:48:06;;;;;;;2.50;0.43;;;15.20;95.40;;;;;;5109293;28;20035;-61
2024/04/06 05:50:36;;;;;;;2.72;0.40;;;15.20;95.40;;;;;;5110811;28;20042;-61
2024/04/06 05:53:04;;;;;;;2.58;0.30;;;15.30;95.30;;;;;;5107298;28;20086;-61
2024/04/06 05:55:30;;;;;;;2.80;0.40;;;15.30;95.20;;;;;;5109327;28;20084;-61
2024/04/06 05:57:56;;;;;;;1.23;0.30;;;15.40;95.20;;;;;;5110275;28;20638;-61
2024/04/06 06:00:24;;;;;;;3.97;0.50;;;15.40;95.20;;;;;;5108113;28;20613;-61
2024/04/06 06:02:51;;;;;;;2.20;0.50;;;15.50;95.10;;;;;;5109736;28;20027;-61
2024/04/06 06:05:16;;;;;;;2.55;0.40;;;15.50;95.10;;;;;;5109141;28;20040;-61
2024/04/06 06:07:42;;;;;;;4.32;0.50;;;15.60;94.90;;;;;;5108256;27;20377;-62
2024/04/06 06:10:08;;;;;;;4.10;0.40;;;15.60;94.80;;;;;;5100269;27;20525;-61
2024/04/06 06:12:34;;;;;;;11.50;0.73;;;15.60;94.70;;;;;;5093709;28;20039;-61
2024/04/06 06:14:59;;;;;;;2.50;0.40;;;15.70;94.60;;;;;;5098900;28;20032;-60
2024/04/06 06:17:25;;;;;;;5.75;0.47;;;15.70;94.40;;;;;;5112247;27;20039;-62
2024/04/06 06:19:51;;;;;;;4.60;0.30;;;15.80;94.20;;;;;;5111937;28;20394;-61
2024/04/06 06:22:16;;;;;;;3.00;0.40;;;15.80;94.00;;;;;;5095913;28;20032;-61
2024/04/06 06:24:54;;;;;;;4.35;0.40;;;15.90;93.80;;;;;;5108200;28;20027;-62
2024/04/06 06:27:20;;;;;;;1.63;0.20;;;16.00;93.70;;;;;;5112628;28;20042;-61
2024/04/06 06:29:46;;;;;;;3.85;0.32;;;16.10;93.50;;;;;;5111575;28;20373;-61
2024/04/06 06:32:11;;;;;;;2.38;0.38;;;16.20;92.80;;;;;;5112804;28;20495;-61
2024/04/06 06:34:37;;;;;;;2.45;0.30;;;16.20;92.70;;;;;;5112661;28;20489;-60
2024/04/06 06:37:03;;;;;;;5.13;0.30;;;16.30;92.90;;;;;;5110968;28;20361;-61
2024/04/06 06:39:35;;;;;;;2.33;0.22;;;16.40;92.00;;;;;;5109340;28;20035;-61
2024/04/06 06:42:01;;;;;;;1.92;0.30;;;16.50;91.90;;;;;;5101865;28;20024;-60
2024/04/06 06:44:26;;;;;;;2.83;0.30;;;16.50;91.80;;;;;;5094044;28;20031;-61
2024/04/06 06:46:52;;;;;;;3.85;0.20;;;16.70;92.10;;;;;;5088204;28;20392;-61
2024/04/06 06:49:17;;;;;;;2.58;0.50;;;16.80;92.30;;;;;;5105415;28;20110;-61
2024/04/06 06:51:43;;;;;;;1.08;0.28;;;16.90;91.90;;;;;;5111002;28;20076;-61
2024/04/06 06:54:08;;;;;;;2.70;0.40;;;17.00;91.50;;;;;;5110995;28;20065;-60
2024/04/06 06:56:34;;;;;;;5.60;0.50;;;17.00;91.10;;;;;;5111221;28;20031;-60
2024/04/06 06:59:00;;;;;;;1.67;0.30;;;17.10;91.20;;;;;;5106735;28;20051;-60
2024/04/06 07:01:26;;;;;;;1.38;0.30;;;17.20;91.30;;;;;;5111207;28;20573;-60
2024/04/06 07:03:52;;;;;;;2.40;0.32;;;17.30;91.00;;;;;;5093965;28;20027;-60
2024/04/06 07:06:17;;;;;;;1.73;0.22;;;17.40;90.60;;;;;;5109072;28;20506;-61
2024/04/06 07:08:43;;;;;;;4.03;0.20;;;17.50;90.20;;;;;;5112602;28;20362;-61
2024/04/06 07:11:09;;;;;;;4.68;0.50;;;17.60;90.30;;;;;;5105999;28;20064;-60
2024/04/06 07:13:36;;;;;;;2.90;0.30;;;17.80;89.80;;;;;;5097824;28;20035;-61
2024/04/06 07:16:12;;;;;;;2.03;0.30;;;17.90;88.40;;;;;;5100899;28;20077;-62
2024/04/06 07:18:46;;;;;;;3.00;0.43;;;18.10;89.70;;;;;;5108765;28;20044;-61
2024/04/06 07:21:13;;;;;;;1.67;0.20;;;18.30;88.80;;;;;;5095059;27;20047;-62
2024/04/06 07:23:39;;;;;;;4.25;0.40;;;18.30;87.40;;;;;;5107489;28;20035;-62
2024/04/06 07:26:05;;;;;;;0.80;0.20;;;18.30;87.20;;;;;;5106246;28;20036;-61
2024/04/06 07:28:31;;;;;;;1.05;0.10;;;18.40;87.20;;;;;;5108425;28;20096;-61
2024/04/06 07:30:56;;;;;;;1.35;0.30;;;18.50;86.00;;;;;;5109285;28;20057;-61
2024/04/06 07:33:22;;;;;;;2.40;0.20;;;18.40;84.90;;;;;;5106921;28;20032;-62
2024/04/06 07:35:48;;;;;;;1.13;0.30;;;18.40;85.70;;;;;;5109253;28;20043;-61
2024/04/06 07:38:14;;;;;;;0.28;0.08;;;18.50;86.30;;;;;;5111388;28;20087;-61
2024/04/06 07:40:40;;;;;;;2.22;0.30;;;18.70;85.20;;;;;;5077206;28;20040;-61
2024/04/06 07:43:05;;;;;;;1.73;0.30;;;18.80;83.70;;;;;;5091865;28;20031;-62
2024/04/06 07:45:31;;;;;;;1.80;0.20;;;18.80;82.60;;;;;;5108979;28;20116;-62
2024/04/06 07:47:57;;;;;;;4.35;0.40;;;18.80;82.90;;;;;;5112962;28;20028;-62
2024/04/06 07:50:23;;;;;;;2.47;0.20;;;18.80;83.60;;;;;;5111813;28;20039;-61
2024/04/06 07:52:49;;;;;;;2.28;0.25;;;18.90;82.70;;;;;;5113604;28;20086;-62
2024/04/06 07:55:21;;;;;;;2.58;0.20;;;19.10;83.10;;;;;;5111209;28;20461;-61
2024/04/06 07:57:47;;;;;;;5.18;0.40;;;19.10;82.20;;;;;;5108882;28;20110;-61
2024/04/06 08:00:13;;;;;;;1.30;0.20;;;19.10;82.30;;;;;;5095297;28;20185;-61
2024/04/06 08:02:42;;;;;;;1.83;0.40;;;19.10;81.80;;;;;;5097693;28;20035;-61
2024/04/06 08:05:08;;;;;;;2.38;0.40;;;19.10;82.30;;;;;;5108789;28;20401;-61
2024/04/06 08:07:34;;;;;;;2.20;0.38;;;19.20;82.50;;;;;;5107087;28;20031;-62
2024/04/06 08:10:17;;;;;;;1.77;0.20;;;19.20;82.40;;;;;;5108961;28;20031;-62
2024/04/06 08:12:43;;;;;;;1.60;0.28;;;19.20;82.30;;;;;;5099497;28;20023;-61
2024/04/06 08:15:10;;;;;;;3.08;0.32;;;19.30;82.90;;;;;;5113183;27;20039;-61
2024/04/06 08:17:42;;;;;;;1.75;0.28;;;19.30;83.00;;;;;;5091393;28;20050;-62
2024/04/06 08:20:08;;;;;;;2.70;0.30;;;19.30;82.50;;;;;;5103545;28;20495;-61
2024/04/06 08:22:35;;;;;;;1.00;0.17;;;19.40;80.90;;;;;;5092265;28;20067;-62
2024/04/06 08:25:04;;;;;;;2.75;0.30;;;19.50;81.60;;;;;;5049772;28;20500;-62
2024/04/06 08:27:31;;;;;;;2.28;0.30;;;19.50;81.30;;;;;;5081498;28;20127;-62
2024/04/06 08:29:56;;;;;;;2.58;0.13;;;19.50;80.80;;;;;;5099393;28;20055;-62
2024/04/06 08:32:22;;;;;;;4.10;0.40;;;19.60;80.90;;;;;;5069786;28;20538;-62
2024/04/06 08:34:53;;;;;;;3.47;0.30;;;19.70;80.00;;;;;;5082232;28;20031;-62
2024/04/06 08:37:19;;;;;;;1.15;0.20;;;19.70;79.60;;;;;;5066964;28;20486;-62
2024/04/06 08:39:44;;;;;;;4.45;0.40;;;19.80;79.70;;;;;;5073871;28;20116;-62
2024/04/06 08:42:20;;;;;;;7.13;0.50;;;19.80;80.80;;;;;;5090907;28;20070;-63
2024/04/06 08:44:47;;;;;;;0.85;0.15;;;19.80;80.60;;;;;;5089814;28;20075;-62
2024/04/06 08:47:14;;;;;;;1.35;0.20;;;19.80;80.10;;;;;;5106895;28;20043;-62
2024/04/06 08:49:40;;;;;;;1.75;0.30;;;19.80;79.70;;;;;;5109108;28;20155;-61
2024/04/06 08:52:07;;;;;;;1.02;0.10;;;19.90;79.80;;;;;;5114061;28;20084;-63
2024/04/06 08:54:33;;;;;;;1.67;0.20;;;19.90;79.40;;;;;;5108467;28;20373;-62
2024/04/06 08:57:02;;;;;;;0.73;0.10;;;20.00;78.20;;;;;;5110601;28;20043;-63
2024/04/06 08:59:28;;;;;;;1.35;0.20;;;20.10;77.40;;;;;;5109725;28;20396;-62
2024/04/06 09:01:54;;;;;;;1.38;0.20;;;20.20;78.00;;;;;;5089433;28;20062;-62
2024/04/06 09:04:20;;;;;;;0.73;0.20;;;20.30;77.80;;;;;;5098905;28;20110;-62
2024/04/06 09:06:46;;;;;;;3.30;0.20;;;20.40;78.40;;;;;;5105025;28;20366;-62
2024/04/06 09:09:12;;;;;;;1.38;0.17;;;20.50;77.60;;;;;;5105454;28;20028;-62
2024/04/06 09:11:38;;;;;;;0.63;0.20;;;20.60;78.10;;;;;;5108969;28;20115;-62
2024/04/06 09:14:04;;;;;;;1.92;0.20;;;20.60;78.00;;;;;;5107495;28;20907;-62
2024/04/06 09:16:30;;;;;;;1.00;0.20;;;20.80;78.40;;;;;;5111587;27;20122;-62
2024/04/06 09:19:03;;;;;;;0.47;0.20;;;20.80;75.60;;;;;;5109768;28;20143;-62
2024/04/06 09:21:29;;;;;;;2.30;0.22;;;20.90;75.80;;;;;;5091014;28;20036;-63
2024/04/06 09:23:55;;;;;;;1.17;0.20;;;21.00;76.00;;;;;;5107136;28;20031;-63
2024/04/06 09:26:21;;;;;;;3.17;0.30;;;21.00;75.70;;;;;;5108484;28;20038;-63
2024/04/06 09:28:51;;;;;;;2.40;0.22;;;21.20;76.90;;;;;;5115394;28;20143;-63
2024/04/06 09:31:20;;;;;;;2.30;0.28;;;21.30;75.30;;;;;;5106285;28;20123;-63
2024/04/06 09:33:50;;;;;;;2.58;0.17;;;21.40;74.60;;;;;;5109852;27;20035;-63
2024/04/06 09:36:16;;;;;;;1.17;0.20;;;21.50;75.90;;;;;;5109432;28;20088;-63
2024/04/06 09:38:43;;;;;;;10.18;0.63;;;21.60;76.70;;;;;;5109416;28;20047;-63
2024/04/06 09:41:10;;;;;;;1.05;0.15;;;21.70;74.60;;;;;;5109836;28;20051;-63
2024/04/06 09:43:36;;;;;;;1.45;0.10;;;21.90;74.60;;;;;;5111287;28;20036;-62
2024/04/06 09:46:02;;;;;;;0.88;0.20;;;22.10;73.00;;;;;;5107611;28;20486;-63
2024/04/06 09:48:28;;;;;;;2.70;0.28;;;22.20;74.80;;;;;;5111492;28;20042;-63
2024/04/06 09:50:56;;;;;;;1.70;0.20;;;22.40;75.10;;;;;;5113869;28;20031;-62
2024/04/06 09:53:22;;;;;;;1.40;0.10;;;22.50;71.10;;;;;;5113848;28;20028;-62
2024/04/06 09:55:48;;;;;;;0.73;0.10;;;22.60;71.10;;;;;;5112596;28;20035;-63
2024/04/06 09:58:18;;;;;;;0.38;0.05;;;22.60;68.60;;;;;;5114816;28;20409;-62
2024/04/06 10:00:50;;;;;;;0.63;0.17;;;22.60;68.60;;;;;;5116067;28;20032;-63
2024/04/06 10:03:16;;;;;;;0.50;0.10;;;22.60;70.80;;;;;;5115231;27;20030;-63
2024/04/06 10:05:44;;;;;;;2.75;0.35;;;22.70;73.10;;;;;;5116588;28;20262;-63
2024/04/06 10:08:11;;;;;;;0.77;0.20;;;22.70;72.10;;;;;;5110644;28;20393;-64
2024/04/06 10:10:59;;;;;;;2.95;0.30;;;22.80;71.90;;;;;;5097598;28;20246;-63
2024/04/06 10:13:24;;;;;;;3.38;0.20;;;22.80;73.40;;;;;;5111320;28;20042;-64
2024/04/06 10:15:51;;;;;;;2.95;0.30;;;22.90;71.30;;;;;;5116020;28;20031;-63
2024/04/06 10:18:16;;;;;;;2.28;0.30;;;23.00;72.40;;;;;;5113727;28;20512;-63
2024/04/06 10:20:43;;;;;;;1.52;0.20;;;23.10;71.70;;;;;;5113656;28;20031;-65
2024/04/06 10:23:13;;;;;;;2.25;0.30;;;23.20;71.10;;;;;;5113648;28;20386;-64
2024/04/06 10:25:39;;;;;;;1.77;0.30;;;23.30;72.60;;;;;;5102655;28;20028;-63
2024/04/06 10:28:11;;;;;;;2.00;0.30;;;23.30;71.90;;;;;;5098749;28;20050;-64
2024/04/06 10:30:38;;;;;;;2.75;0.30;;;23.40;71.20;;;;;;5111658;28;20638;-63
2024/04/06 10:33:05;;;;;;;5.30;0.40;;;23.40;70.40;;;;;;5108341;28;20111;-63
2024/04/06 10:35:31;;;;;;;2.72;0.38;;;23.40;71.50;;;;;;5089008;28;20058;-64
2024/04/06 10:37:56;;;;;;;2.05;0.40;;;23.40;71.70;;;;;;5079293;28;20476;-63
2024/04/06 10:40:23;;;;;;;1.70;0.20;;;23.30;72.00;;;;;;5054079;28;20107;-63
2024/04/06 10:42:49;;;;;;;0.70;0.20;;;23.40;72.10;;;;;;5050437;28;20041;-63
2024/04/06 10:45:16;;;;;;;2.50;0.22;;;23.40;72.40;;;;;;5026038;28;20041;-63
2024/04/06 10:47:42;;;;;;;1.08;0.10;;;23.60;72.20;;;;;;5027915;28;20091;-63
2024/04/06 10:50:09;;;;;;;2.42;0.10;;;23.70;73.00;;;;;;5069544;28;20061;-63
2024/04/06 10:52:40;;;;;;;2.25;0.40;;;23.80;72.20;;;;;;5040424;28;20041;-63
2024/04/06 10:55:20;;;;;;;0.95;0.20;;;23.90;72.70;;;;;;5001978;28;20398;-63
2024/04/06 10:57:55;;;;;;;1.13;0.20;;;24.10;73.50;;;;;;5013008;28;20030;-63
2024/04/06 11:00:21;;;;;;;1.58;0.20;;;24.20;71.90;;;;;;4994650;28;20053;-63
2024/04/06 11:02:47;;;;;;;0.98;0.20;;;24.30;71.20;;;;;;5016589;28;20538;-63
2024/04/06 11:05:13;;;;;;;2.20;0.25;;;24.40;71.40;;;;;;5020772;28;20042;-64
2024/04/06 11:07:40;;;;;;;1.50;0.20;;;24.50;69.60;;;;;;5020763;28;20179;-63
2024/04/06 11:10:09;;;;;;;1.58;0.28;;;24.60;69.90;;;;;;5003973;28;20075;-63
2024/04/06 11:12:39;;;;;;;2.47;0.30;;;24.90;68.20;;;;;;5030838;28;20036;-63
2024/04/06 11:15:07;;;;;;;1.95;0.30;;;24.90;68.30;;;;;;5048360;28;20033;-63
2024/04/06 11:17:33;;;;;;;1.90;0.13;;;25.00;68.70;;;;;;5011034;28;20041;-63
2024/04/06 11:20:04;;;;;;;2.50;0.20;;;25.10;69.20;;;;;;5038156;28;20387;-63
2024/04/06 11:22:30;;;;;;;0.77;0.20;;;25.10;68.10;;;;;;5030643;28;20034;-64
2024/04/06 11:24:56;;;;;;;0.50;0.10;;;25.10;67.50;;;;;;5016963;28;20272;-63
2024/04/06 11:27:23;;;;;;;1.23;0.28;;;25.20;69.10;;;;;;5040201;28;20045;-62
2024/04/06 11:29:49;;;;;;;3.95;0.38;;;25.30;68.30;;;;;;5007556;28;20037;-61
2024/04/06 11:32:22;;;;;;;1.40;0.20;;;25.40;68.70;;;;;;5007856;28;20042;-63
2024/04/06 11:34:48;;;;;;;1.75;0.30;;;25.60;67.40;;;;;;5028987;28;20040;-61
2024/04/06 11:37:15;;;;;;;1.20;0.28;;;25.80;65.70;;;;;;5016196;28;20056;-62
2024/04/06 11:39:40;;;;;;;1.80;0.20;;;25.70;64.30;;;;;;4998167;28;20114;-62
2024/04/06 11:42:06;;;;;;;2.45;0.40;;;25.80;66.40;;;;;;5031046;28;20037;-62
2024/04/06 11:44:32;;;;;;;1.63;0.30;;;26.00;64.90;;;;;;5028996;28;20041;-62
2024/04/06 11:46:58;;;;;;;1.90;0.20;;;26.00;67.20;;;;;;5016129;28;20041;-62
2024/04/06 11:49:30;;;;;;;2.15;0.40;;;26.00;66.10;;;;;;5002237;28;20380;-63
2024/04/06 11:51:56;;;;;;;2.30;0.32;;;26.00;65.20;;;;;;5035993;28;20041;-62
2024/04/06 11:54:21;;;;;;;2.78;0.32;;;26.10;67.30;;;;;;5002935;28;20389;-63
2024/04/06 11:56:47;;;;;;;1.98;0.30;;;26.00;65.00;;;;;;5015017;28;20074;-62
2024/04/06 11:59:13;;;;;;;1.92;0.20;;;26.10;66.10;;;;;;5075543;28;20635;-63
2024/04/06 12:01:40;;;;;;;1.65;0.30;;;26.10;65.70;;;;;;5057708;28;20575;-62
2024/04/06 12:04:06;;;;;;;2.05;0.28;;;26.10;65.00;;;;;;5049318;28;20490;-63
2024/04/06 12:06:33;;;;;;;1.83;0.25;;;26.20;65.80;;;;;;5041835;28;20131;-63
2024/04/06 12:09:05;;;;;;;2.40;0.20;;;26.40;66.30;;;;;;5048693;28;20038;-64
2024/04/06 12:11:32;;;;;;;2.60;0.20;;;26.50;64.60;;;;;;5044510;28;20378;-63
2024/04/06 12:13:58;;;;;;;;;;;26.60;65.30;;;;;;5102749;28;20020;-62
2024/04/06 12:16:26;;;;;;;2.40;0.20;;;26.80;65.00;;;;;;5111215;28;19919;-62
2024/04/06 12:18:52;;;;;;;2.28;0.30;;;26.90;66.20;;;;;;5106889;28;20039;-63
2024/04/06 12:21:17;;;;;;;2.83;0.30;;;27.00;64.30;;;;;;5108774;28;20035;-64
2024/04/06 12:23:44;;;;;;;2.28;0.30;;;27.00;65.70;;;;;;5109523;28;20038;-61
2024/04/06 12:26:10;;;;;;;3.70;0.40;;;27.10;65.00;;;;;;5098087;28;20501;-63
2024/04/06 12:28:36;;;;;;;1.75;0.25;;;27.20;64.80;;;;;;5082426;28;20051;-61
2024/04/06 12:31:01;;;;;;;0.55;0.10;;;27.10;65.50;;;;;;5081226;28;20113;-63
2024/04/06 12:33:29;;;;;;;3.05;0.40;;;27.30;63.90;;;;;;5094590;28;20478;-64
2024/04/06 12:35:54;;;;;;;3.30;0.35;;;27.10;63.80;;;;;;5088974;28;20025;-63
2024/04/06 12:38:20;;;;;;;3.60;0.20;;;27.00;63.20;;;;;;5072081;28;20051;-64
2024/04/06 12:40:46;;;;;;;1.48;0.15;;;26.80;63.40;;;;;;5096228;28;20028;-63
2024/04/06 12:43:11;;;;;;;5.10;0.30;;;26.70;64.30;;;;;;5082410;28;20043;-63
2024/04/06 12:45:37;;;;;;;1.73;0.30;;;26.70;63.30;;;;;;5090732;28;20040;-64
2024/04/06 12:48:03;;;;;;;2.38;0.30;;;26.60;64.00;;;;;;5052076;28;20452;-63